Time;durP1;ratioP1;P1;durP2;ratioP2;P2;SDS_P1;SDS_P2;PMS_P1;PMS_P2;Temp;Humidity;BMP_temperature;BMP_pressure;BME280_temperature;BME280_humidity;BME280_pressure;Samples;Min_cycle;Max_cycle;Signal;HPM_P1;HPM_P2
2024/03/26 00:00:01;;;;;;;13.32;7.90;;;;;;;;;;5112478;28;20028;-51
2024/03/26 00:02:28;;;;;;;13.38;7.95;;;;;;;;;;5112267;28;20028;-53
2024/03/26 00:04:54;;;;;;;13.50;8.20;;;;;;;;;;5112359;28;20023;-54
2024/03/26 00:07:20;;;;;;;13.38;8.30;;;;;;;;;;5111944;28;20046;-52
2024/03/26 00:09:46;;;;;;;13.40;8.30;;;;;;;;;;5112176;28;20069;-51
2024/03/26 00:12:12;;;;;;;13.43;8.25;;;;;;;;;;5111925;28;20028;-52
2024/03/26 00:14:38;;;;;;;13.48;8.38;;;;;;;;;;5111606;28;20039;-49
2024/03/26 00:17:04;;;;;;;13.57;8.40;;;;;;;;;;5111755;28;20023;-51
2024/03/26 00:19:30;;;;;;;13.50;8.40;;;;;;;;;;5112063;28;20564;-54
2024/03/26 00:21:56;;;;;;;13.32;7.90;;;;;;;;;;5111475;28;20027;-49
2024/03/26 00:24:23;;;;;;;13.35;7.97;;;;;;;;;;5111456;28;20026;-55
2024/03/26 00:26:49;;;;;;;13.43;8.02;;;;;;;;;;5111084;28;20492;-54
2024/03/26 00:29:15;;;;;;;13.25;7.97;;;;;;;;;;5111678;28;20046;-55
2024/03/26 00:31:41;;;;;;;13.48;8.30;;;;;;;;;;5111892;28;20032;-53
2024/03/26 00:34:07;;;;;;;13.38;8.00;;;;;;;;;;5111609;28;20054;-50
2024/03/26 00:36:33;;;;;;;13.25;7.75;;;;;;;;;;5111356;28;20027;-50
2024/03/26 00:38:59;;;;;;;13.48;8.32;;;;;;;;;;5111266;28;20019;-49
2024/03/26 00:41:25;;;;;;;13.27;7.97;;;;;;;;;;5110956;28;20023;-50
2024/03/26 00:43:52;;;;;;;13.43;8.10;;;;;;;;;;5092555;28;20504;-57
2024/03/26 00:46:18;;;;;;;13.50;8.20;;;;;;;;;;5097037;28;20055;-56
2024/03/26 00:48:44;;;;;;;13.48;8.25;;;;;;;;;;5090257;28;20470;-53
2024/03/26 00:51:11;;;;;;;13.43;8.10;;;;;;;;;;5072114;28;20030;-54
2024/03/26 00:53:37;;;;;;;13.50;8.30;;;;;;;;;;5090198;28;20024;-56
2024/03/26 00:56:04;;;;;;;13.50;8.27;;;;;;;;;;5089759;28;20031;-53
2024/03/26 00:58:30;;;;;;;13.38;7.95;;;;;;;;;;5090050;28;20115;-53
2024/03/26 01:00:56;;;;;;;13.38;8.02;;;;;;;;;;5090119;28;20112;-54
2024/03/26 01:03:22;;;;;;;13.30;7.75;;;;;;;;;;5090663;28;20020;-49
2024/03/26 01:05:54;;;;;;;13.40;8.00;;;;;;;;;;5090499;28;20070;-55
2024/03/26 01:08:20;;;;;;;13.05;7.70;;;;;;;;;;5090633;28;20032;-52
2024/03/26 01:10:47;;;;;;;13.27;7.90;;;;;;;;;;4738682;28;9999732;-52
2024/03/26 01:13:13;;;;;;;13.20;7.80;;;;;;;;;;5112673;22;20081;-59
2024/03/26 01:15:39;;;;;;;13.30;7.85;;;;;;;;;;5068227;28;20044;-55
2024/03/26 01:18:05;;;;;;;13.30;7.85;;;;;;;;;;5068400;28;20111;-56
2024/03/26 01:20:31;;;;;;;13.38;7.95;;;;;;;;;;5068098;28;20364;-57
2024/03/26 01:22:57;;;;;;;13.25;7.82;;;;;;;;;;5067682;28;20027;-56
2024/03/26 01:25:23;;;;;;;13.30;7.90;;;;;;;;;;5087584;28;20126;-51
2024/03/26 01:27:52;;;;;;;13.20;7.70;;;;;;;;;;5088273;28;20088;-58
2024/03/26 01:30:18;;;;;;;13.38;7.80;;;;;;;;;;5088361;28;20036;-57
2024/03/26 01:32:44;;;;;;;13.27;7.70;;;;;;;;;;5088952;28;20583;-55
2024/03/26 01:35:10;;;;;;;13.75;9.15;;;;;;;;;;5089026;28;20028;-57
2024/03/26 01:37:36;;;;;;;13.40;8.10;;;;;;;;;;5076544;28;20501;-55
2024/03/26 01:40:02;;;;;;;13.07;7.65;;;;;;;;;;5068814;28;20071;-56
2024/03/26 01:42:28;;;;;;;13.13;7.68;;;;;;;;;;5068903;28;20047;-56
2024/03/26 01:44:54;;;;;;;13.32;7.95;;;;;;;;;;5068593;28;20398;-52
2024/03/26 01:47:21;;;;;;;13.05;7.60;;;;;;;;;;5069305;28;20016;-57
2024/03/26 01:49:47;;;;;;;13.23;7.72;;;;;;;;;;5068917;28;20074;-54
2024/03/26 01:52:13;;;;;;;13.40;8.10;;;;;;;;;;5068897;28;20066;-58
2024/03/26 01:54:41;;;;;;;13.05;7.68;;;;;;;;;;5068676;28;20595;-56
2024/03/26 01:57:07;;;;;;;13.00;7.60;;;;;;;;;;5069089;28;20024;-57
2024/03/26 01:59:33;;;;;;;13.32;7.88;;;;;;;;;;5069128;28;20426;-56
2024/03/26 02:01:59;;;;;;;13.38;8.00;;;;;;;;;;5068932;28;20021;-54
2024/03/26 02:04:25;;;;;;;13.38;7.97;;;;;;;;;;5070048;28;20074;-57
2024/03/26 02:06:51;;;;;;;13.40;7.85;;;;;;;;;;5072977;28;20029;-56
2024/03/26 02:09:17;;;;;;;13.32;7.90;;;;;;;;;;5072925;28;20101;-55
2024/03/26 02:11:43;;;;;;;13.27;7.80;;;;;;;;;;5072957;28;20047;-54
2024/03/26 02:14:09;;;;;;;13.15;7.80;;;;;;;;;;5072753;28;20447;-55
2024/03/26 02:16:35;;;;;;;13.38;7.90;;;;;;;;;;5080885;28;20048;-58
2024/03/26 02:19:02;;;;;;;13.13;7.72;;;;;;;;;;5074798;28;20027;-58
2024/03/26 02:21:28;;;;;;;13.07;7.75;;;;;;;;;;5093034;28;20076;-56
2024/03/26 02:23:53;;;;;;;13.30;7.88;;;;;;;;;;5092433;28;20095;-54
2024/03/26 02:26:19;;;;;;;13.23;7.70;;;;;;;;;;5092887;28;20485;-56
2024/03/26 02:28:45;;;;;;;13.07;7.65;;;;;;;;;;5092545;28;20056;-58
2024/03/26 02:31:11;;;;;;;13.32;7.80;;;;;;;;;;5074495;28;20163;-57
2024/03/26 02:33:37;;;;;;;13.15;7.68;;;;;;;;;;5092316;28;20089;-58
2024/03/26 02:36:04;;;;;;;13.20;7.60;;;;;;;;;;5074221;28;20074;-55
2024/03/26 02:38:30;;;;;;;13.80;8.93;;;;;;;;;;5092319;28;20046;-56
2024/03/26 02:40:56;;;;;;;12.93;7.50;;;;;;;;;;5092450;28;20107;-56
2024/03/26 02:43:22;;;;;;;13.32;7.75;;;;;;;;;;5092041;28;20020;-59
2024/03/26 02:45:48;;;;;;;13.00;7.53;;;;;;;;;;5092107;28;20526;-53
2024/03/26 02:48:14;;;;;;;13.20;7.70;;;;;;;;;;5092424;28;20051;-54
2024/03/26 02:50:40;;;;;;;13.38;7.97;;;;;;;;;;5092544;28;20122;-55
2024/03/26 02:53:06;;;;;;;13.20;7.70;;;;;;;;;;5092016;28;20024;-52
2024/03/26 02:55:32;;;;;;;13.20;7.75;;;;;;;;;;5092130;28;20039;-57
2024/03/26 02:57:58;;;;;;;13.13;7.68;;;;;;;;;;5091999;28;20444;-53
2024/03/26 03:00:24;;;;;;;13.13;7.68;;;;;;;;;;5092352;28;20023;-58
2024/03/26 03:02:50;;;;;;;13.38;8.00;;;;;;;;;;5091286;28;20020;-58
2024/03/26 03:05:16;;;;;;;13.18;7.78;;;;;;;;;;5091806;28;20436;-58
2024/03/26 03:07:41;;;;;;;13.23;7.78;;;;;;;;;;5091559;28;20103;-58
2024/03/26 03:10:08;;;;;;;13.20;7.72;;;;;;;;;;5073569;28;20482;-57
2024/03/26 03:12:34;;;;;;;13.15;7.72;;;;;;;;;;5091603;28;20506;-60
2024/03/26 03:15:00;;;;;;;13.25;7.93;;;;;;;;;;5072582;28;20031;-59
2024/03/26 03:17:26;;;;;;;13.05;7.65;;;;;;;;;;5091064;28;20020;-57
2024/03/26 03:19:52;;;;;;;13.05;7.63;;;;;;;;;;5091764;28;20051;-55
2024/03/26 03:22:18;;;;;;;13.38;8.02;;;;;;;;;;5092036;28;20031;-55
2024/03/26 03:24:44;;;;;;;13.40;8.00;;;;;;;;;;5091695;28;20029;-57
2024/03/26 03:27:10;;;;;;;13.45;8.10;;;;;;;;;;5091695;28;20470;-55
2024/03/26 03:29:36;;;;;;;13.48;8.38;;;;;;;;;;5091407;28;20034;-58
2024/03/26 03:32:02;;;;;;;13.30;7.85;;;;;;;;;;5091214;28;20049;-58
2024/03/26 03:34:27;;;;;;;13.32;8.00;;;;;;;;;;5091052;28;20055;-55
2024/03/26 03:36:53;;;;;;;13.43;8.20;;;;;;;;;;5090870;28;20035;-55
2024/03/26 03:39:19;;;;;;;13.32;7.95;;;;;;;;;;5091148;28;20074;-58
2024/03/26 03:41:45;;;;;;;13.40;8.02;;;;;;;;;;5091019;28;20513;-55
2024/03/26 03:44:12;;;;;;;13.40;8.18;;;;;;;;;;5090755;28;20064;-58
2024/03/26 03:46:38;;;;;;;13.38;8.13;;;;;;;;;;5090970;28;20498;-58
2024/03/26 03:49:04;;;;;;;13.38;8.07;;;;;;;;;;5072812;28;20031;-56
2024/03/26 03:51:30;;;;;;;13.40;8.15;;;;;;;;;;5090736;28;20425;-56
2024/03/26 03:53:56;;;;;;;13.43;8.15;;;;;;;;;;5090975;28;20023;-57
2024/03/26 03:56:23;;;;;;;13.45;8.18;;;;;;;;;;5091127;28;20066;-57
2024/03/26 03:58:49;;;;;;;13.48;8.20;;;;;;;;;;5090906;28;20035;-55
2024/03/26 04:01:14;;;;;;;13.15;7.80;;;;;;;;;;5090804;28;20029;-56
2024/03/26 04:03:40;;;;;;;13.40;8.00;;;;;;;;;;5090488;28;20028;-51
2024/03/26 04:06:06;;;;;;;13.40;8.07;;;;;;;;;;5072475;28;20028;-54
2024/03/26 04:08:32;;;;;;;13.32;8.07;;;;;;;;;;5090540;28;20027;-55
2024/03/26 04:11:00;;;;;;;13.40;8.05;;;;;;;;;;5090401;28;20512;-57
2024/03/26 04:13:26;;;;;;;13.40;8.10;;;;;;;;;;5090210;28;20386;-55
2024/03/26 04:15:52;;;;;;;13.25;8.00;;;;;;;;;;5072505;28;20028;-58
2024/03/26 04:18:18;;;;;;;13.40;8.10;;;;;;;;;;5090884;28;20106;-55
2024/03/26 04:20:44;;;;;;;13.40;8.10;;;;;;;;;;5090793;28;20393;-54
2024/03/26 04:23:10;;;;;;;14.70;9.55;;;;;;;;;;5090561;28;20035;-56
2024/03/26 04:25:36;;;;;;;13.50;8.32;;;;;;;;;;5090538;28;20024;-57
2024/03/26 04:28:02;;;;;;;13.45;8.13;;;;;;;;;;5090075;28;20085;-57
2024/03/26 04:30:28;;;;;;;13.25;7.85;;;;;;;;;;5090123;28;20036;-57
2024/03/26 04:32:54;;;;;;;13.38;8.10;;;;;;;;;;5089874;28;20059;-56
2024/03/26 04:35:20;;;;;;;13.23;7.90;;;;;;;;;;5090010;28;20115;-53
2024/03/26 04:37:46;;;;;;;13.35;8.10;;;;;;;;;;5071589;28;20027;-54
2024/03/26 04:40:12;;;;;;;13.38;7.90;;;;;;;;;;5090075;28;20466;-56
2024/03/26 04:42:38;;;;;;;13.15;7.80;;;;;;;;;;5089622;28;20063;-55
2024/03/26 04:45:04;;;;;;;13.18;7.78;;;;;;;;;;5089887;28;20048;-53
2024/03/26 04:47:30;;;;;;;13.52;8.30;;;;;;;;;;5089918;28;20134;-53
2024/03/26 04:49:57;;;;;;;13.35;8.15;;;;;;;;;;5089818;28;20503;-55
2024/03/26 04:52:23;;;;;;;13.40;8.00;;;;;;;;;;5089434;28;20020;-55
2024/03/26 04:54:49;;;;;;;13.07;7.72;;;;;;;;;;5089109;28;20043;-56
2024/03/26 04:57:14;;;;;;;13.23;7.93;;;;;;;;;;5090004;28;20039;-53
2024/03/26 04:59:40;;;;;;;13.50;8.27;;;;;;;;;;5089808;28;20146;-56
2024/03/26 05:02:06;;;;;;;13.45;8.20;;;;;;;;;;5071214;28;20020;-55
2024/03/26 05:04:32;;;;;;;13.48;8.20;;;;;;;;;;5089151;28;20028;-55
2024/03/26 05:07:00;;;;;;;13.40;8.20;;;;;;;;;;5089365;28;20046;-55
2024/03/26 05:09:26;;;;;;;13.43;8.20;;;;;;;;;;5089607;28;20462;-53
2024/03/26 05:11:52;;;;;;;14.20;9.65;;;;;;;;;;5089200;28;20085;-56
2024/03/26 05:14:18;;;;;;;13.27;8.25;;;;;;;;;;5088726;28;20450;-54
2024/03/26 05:16:44;;;;;;;13.60;8.70;;;;;;;;;;5089284;28;20124;-56
2024/03/26 05:19:10;;;;;;;13.60;8.68;;;;;;;;;;5071151;28;20612;-56
2024/03/26 05:21:36;;;;;;;13.45;8.25;;;;;;;;;;5089011;28;20025;-54
2024/03/26 05:24:02;;;;;;;13.55;8.50;;;;;;;;;;5088750;28;20463;-57
2024/03/26 05:26:28;;;;;;;13.48;8.20;;;;;;;;;;5070967;28;20039;-57
2024/03/26 05:28:54;;;;;;;13.70;8.85;;;;;;;;;;5070796;28;20052;-55
2024/03/26 05:31:21;;;;;;;13.48;8.30;;;;;;;;;;5089103;28;20089;-57
2024/03/26 05:33:47;;;;;;;13.50;8.40;;;;;;;;;;5088861;28;20471;-56
2024/03/26 05:36:14;;;;;;;13.55;8.40;;;;;;;;;;5088858;28;20110;-55
2024/03/26 05:38:40;;;;;;;13.50;8.30;;;;;;;;;;5088252;28;20024;-55
2024/03/26 05:41:06;;;;;;;13.40;8.20;;;;;;;;;;5088983;28;20046;-56
2024/03/26 05:43:32;;;;;;;13.38;8.20;;;;;;;;;;5088723;28;20028;-57
2024/03/26 05:45:58;;;;;;;13.45;8.27;;;;;;;;;;5089035;28;20028;-53
2024/03/26 05:48:25;;;;;;;13.45;8.15;;;;;;;;;;5089240;28;20036;-57
2024/03/26 05:50:52;;;;;;;13.40;8.13;;;;;;;;;;5089372;28;20096;-56
2024/03/26 05:53:18;;;;;;;13.30;8.10;;;;;;;;;;5088596;28;20081;-56
2024/03/26 05:55:43;;;;;;;13.50;8.32;;;;;;;;;;5088879;28;20032;-55
2024/03/26 05:58:09;;;;;;;13.38;8.25;;;;;;;;;;5089116;28;20016;-55
2024/03/26 06:00:35;;;;;;;13.60;8.60;;;;;;;;;;5089325;28;20396;-54
2024/03/26 06:03:01;;;;;;;13.25;8.13;;;;;;;;;;5088895;28;20027;-55
2024/03/26 06:05:27;;;;;;;13.55;8.52;;;;;;;;;;5088699;28;20431;-56
2024/03/26 06:07:53;;;;;;;13.52;8.43;;;;;;;;;;5088677;28;20055;-56
2024/03/26 06:10:20;;;;;;;15.60;9.88;;;;;;;;;;5088812;28;20028;-59
2024/03/26 06:12:46;;;;;;;13.45;8.35;;;;;;;;;;5088594;28;20024;-55
2024/03/26 06:15:12;;;;;;;13.60;8.77;;;;;;;;;;5088575;28;20504;-57
2024/03/26 06:17:39;;;;;;;13.57;8.60;;;;;;;;;;5088715;28;20020;-52
2024/03/26 06:20:06;;;;;;;14.20;9.00;;;;;;;;;;5089070;28;20109;-55
2024/03/26 06:22:32;;;;;;;13.60;8.73;;;;;;;;;;5088221;28;20158;-57
2024/03/26 06:24:58;;;;;;;13.70;8.90;;;;;;;;;;5088557;28;20087;-59
2024/03/26 06:27:24;;;;;;;13.65;8.70;;;;;;;;;;5088979;28;20028;-56
2024/03/26 06:29:50;;;;;;;13.60;8.68;;;;;;;;;;5088762;28;20031;-54
2024/03/26 06:32:16;;;;;;;13.63;8.85;;;;;;;;;;5088747;28;20020;-56
2024/03/26 06:34:42;;;;;;;13.60;8.60;;;;;;;;;;5088148;28;20478;-52
2024/03/26 06:37:08;;;;;;;13.60;8.73;;;;;;;;;;5088394;28;20028;-57
2024/03/26 06:39:34;;;;;;;13.70;9.00;;;;;;;;;;5088513;28;20082;-57
2024/03/26 06:42:00;;;;;;;13.50;8.52;;;;;;;;;;5088540;28;20047;-57
2024/03/26 06:44:26;;;;;;;13.57;8.77;;;;;;;;;;5088338;28;20076;-55
2024/03/26 06:46:54;;;;;;;13.57;8.50;;;;;;;;;;5070180;28;20478;-53
2024/03/26 06:49:20;;;;;;;13.57;8.63;;;;;;;;;;5088740;28;20032;-57
2024/03/26 06:51:46;;;;;;;13.48;8.45;;;;;;;;;;5091768;28;20085;-59
2024/03/26 06:54:12;;;;;;;13.63;8.80;;;;;;;;;;5074132;28;20027;-58
2024/03/26 06:56:38;;;;;;;13.70;9.00;;;;;;;;;;5092321;28;20035;-52
2024/03/26 06:59:04;;;;;;;13.60;8.73;;;;;;;;;;5091886;28;20024;-54
2024/03/26 07:01:31;;;;;;;13.68;8.90;;;;;;;;;;5092405;28;20031;-55
2024/03/26 07:03:57;;;;;;;13.60;8.77;;;;;;;;;;5091972;28;20028;-57
2024/03/26 07:06:23;;;;;;;13.50;8.40;;;;;;;;;;5073915;28;20020;-56
2024/03/26 07:08:49;;;;;;;13.80;9.10;;;;;;;;;;5092443;28;20030;-57
2024/03/26 07:11:15;;;;;;;13.57;8.63;;;;;;;;;;5073949;28;20370;-53
2024/03/26 07:13:41;;;;;;;13.57;8.75;;;;;;;;;;5093969;22;20035;-53
2024/03/26 07:16:07;;;;;;;13.65;8.70;;;;;;;;;;5051727;28;20407;-54
2024/03/26 07:18:33;;;;;;;13.65;8.90;;;;;;;;;;5051890;28;20021;-52
2024/03/26 07:20:59;;;;;;;13.65;8.80;;;;;;;;;;5052186;28;20032;-52
2024/03/26 07:23:28;;;;;;;13.85;9.20;;;;;;;;;;5052055;28;20086;-54
2024/03/26 07:25:55;;;;;;;13.60;8.80;;;;;;;;;;5032195;28;20454;-54
2024/03/26 07:28:21;;;;;;;13.63;8.85;;;;;;;;;;5032039;28;20436;-54
2024/03/26 07:30:47;;;;;;;13.75;9.05;;;;;;;;;;5032157;28;20109;-53
2024/03/26 07:33:13;;;;;;;13.73;9.07;;;;;;;;;;5030514;28;20060;-54
2024/03/26 07:35:40;;;;;;;13.75;9.10;;;;;;;;;;5031851;28;20025;-52
2024/03/26 07:38:06;;;;;;;13.65;8.88;;;;;;;;;;5047081;28;20055;-53
2024/03/26 07:40:32;;;;;;;13.68;8.98;;;;;;;;;;5050483;28;20056;-53
2024/03/26 07:42:58;;;;;;;13.75;9.40;;;;;;;;;;5051427;28;20017;-51
2024/03/26 07:45:24;;;;;;;13.80;9.20;;;;;;;;;;5051531;28;20078;-51
2024/03/26 07:47:51;;;;;;;14.25;9.73;;;;;;;;;;5051856;28;20471;-54
2024/03/26 07:50:17;;;;;;;13.68;9.07;;;;;;;;;;5051641;28;20067;-55
2024/03/26 07:52:43;;;;;;;13.73;9.13;;;;;;;;;;5051584;28;20036;-54
2024/03/26 07:55:09;;;;;;;13.77;9.18;;;;;;;;;;5051233;28;20017;-55
2024/03/26 07:57:39;;;;;;;15.00;10.55;;;;;;;;;;5051267;28;20032;-57
2024/03/26 08:00:10;;;;;;;13.90;9.48;;;;;;;;;;5051376;28;20021;-53
2024/03/26 08:02:37;;;;;;;13.90;9.50;;;;;;;;;;5049292;28;20483;-53
2024/03/26 08:05:03;;;;;;;13.82;9.30;;;;;;;;;;5051011;28;20025;-53
2024/03/26 08:07:29;;;;;;;14.00;9.60;;;;;;;;;;5051455;28;20082;-52
2024/03/26 08:09:56;;;;;;;14.00;9.48;;;;;;;;;;5051535;28;20120;-53
2024/03/26 08:12:22;;;;;;;13.70;9.00;;;;;;;;;;5051073;28;20035;-53
2024/03/26 08:14:48;;;;;;;13.63;8.80;;;;;;;;;;5049547;28;20033;-52
2024/03/26 08:17:14;;;;;;;13.73;9.00;;;;;;;;;;5051259;28;20384;-53
2024/03/26 08:19:40;;;;;;;13.85;9.40;;;;;;;;;;5049820;28;20021;-56
2024/03/26 08:22:06;;;;;;;13.82;9.25;;;;;;;;;;5050979;28;20395;-55
2024/03/26 08:24:33;;;;;;;13.98;9.65;;;;;;;;;;5049764;28;20378;-53
2024/03/26 08:26:59;;;;;;;13.90;9.57;;;;;;;;;;5049817;28;20025;-51
2024/03/26 08:29:25;;;;;;;13.75;9.05;;;;;;;;;;5051018;28;20037;-51
2024/03/26 08:31:51;;;;;;;13.77;9.10;;;;;;;;;;5049608;28;20029;-54
2024/03/26 08:34:17;;;;;;;13.73;9.02;;;;;;;;;;5050563;28;20021;-54
2024/03/26 08:36:44;;;;;;;13.80;9.23;;;;;;;;;;5050930;28;20044;-52
2024/03/26 08:39:13;;;;;;;13.82;9.35;;;;;;;;;;5050924;28;20021;-57
2024/03/26 08:41:39;;;;;;;13.95;9.65;;;;;;;;;;5049584;28;20021;-56
2024/03/26 08:44:05;;;;;;;13.88;9.50;;;;;;;;;;5050443;28;20025;-52
2024/03/26 08:46:32;;;;;;;14.05;9.93;;;;;;;;;;5050480;28;20109;-53
2024/03/26 08:48:58;;;;;;;14.02;9.98;;;;;;;;;;5049324;28;20033;-53
2024/03/26 08:51:27;;;;;;;14.05;10.05;;;;;;;;;;5048961;28;20503;-56
2024/03/26 08:53:54;;;;;;;14.00;10.00;;;;;;;;;;5048673;28;20037;-55
2024/03/26 08:56:20;;;;;;;14.10;10.07;;;;;;;;;;5050148;28;20025;-53
2024/03/26 08:58:46;;;;;;;14.15;10.20;;;;;;;;;;5050020;28;20027;-54
2024/03/26 09:01:12;;;;;;;13.98;9.73;;;;;;;;;;5048796;28;20073;-52
2024/03/26 09:03:38;;;;;;;14.13;10.30;;;;;;;;;;5049556;28;20028;-50
2024/03/26 09:06:04;;;;;;;14.00;9.77;;;;;;;;;;5050197;28;20025;-55
2024/03/26 09:08:30;;;;;;;13.95;9.88;;;;;;;;;;5050249;28;20021;-52
2024/03/26 09:10:56;;;;;;;14.07;10.00;;;;;;;;;;5048665;28;20025;-52
2024/03/26 09:13:22;;;;;;;14.07;10.10;;;;;;;;;;5048455;28;20025;-50
2024/03/26 09:15:48;;;;;;;14.00;9.88;;;;;;;;;;5049889;28;20086;-55
2024/03/26 09:18:14;;;;;;;14.10;10.05;;;;;;;;;;5050088;28;20423;-53
2024/03/26 09:20:40;;;;;;;14.13;10.20;;;;;;;;;;5049888;28;20086;-52
2024/03/26 09:23:06;;;;;;;13.95;9.95;;;;;;;;;;5048505;28;20048;-55
2024/03/26 09:25:32;;;;;;;14.02;9.90;;;;;;;;;;5049973;28;20079;-55
2024/03/26 09:27:58;;;;;;;14.10;10.10;;;;;;;;;;5049117;28;20486;-55
2024/03/26 09:30:27;;;;;;;14.00;9.90;;;;;;;;;;5048893;28;20052;-53
2024/03/26 09:32:53;;;;;;;14.00;9.82;;;;;;;;;;5048559;28;20021;-53
2024/03/26 09:35:19;;;;;;;14.10;9.88;;;;;;;;;;5048735;28;20452;-55
2024/03/26 09:37:45;;;;;;;14.45;10.82;;;;;;;;;;5050115;28;20020;-55
2024/03/26 09:40:12;;;;;;;14.25;10.40;;;;;;;;;;5049777;28;20025;-53
2024/03/26 09:42:40;;;;;;;14.00;9.90;;;;;;;;;;5047981;28;20445;-54
2024/03/26 09:45:07;;;;;;;14.10;9.97;;;;;;;;;;5049860;28;20025;-54
2024/03/26 09:47:34;;;;;;;14.10;10.10;;;;;;;;;;5049847;28;20294;-51
2024/03/26 09:50:04;;;;;;;14.07;10.13;;;;;;;;;;5049630;28;20498;-54
2024/03/26 09:52:35;;;;;;;14.30;10.50;;;;;;;;;;5049781;28;20112;-53
2024/03/26 09:55:02;;;;;;;14.25;10.50;;;;;;;;;;5048035;28;20487;-52
2024/03/26 09:57:28;;;;;;;14.20;10.40;;;;;;;;;;5049700;28;20045;-54
2024/03/26 09:59:54;;;;;;;14.30;10.45;;;;;;;;;;5049363;28;20025;-52
2024/03/26 10:02:20;;;;;;;14.10;10.20;;;;;;;;;;5049413;28;20048;-50
2024/03/26 10:04:46;;;;;;;14.38;10.80;;;;;;;;;;5048071;28;20025;-52
2024/03/26 10:07:13;;;;;;;13.98;9.82;;;;;;;;;;5024602;28;20025;-54
2024/03/26 10:09:38;;;;;;;14.10;10.07;;;;;;;;;;5019366;28;20064;-51
2024/03/26 10:12:05;;;;;;;15.57;11.07;;;;;;;;;;5043497;28;20065;-54
2024/03/26 10:14:31;;;;;;;14.27;10.60;;;;;;;;;;5022398;28;20029;-55
2024/03/26 10:16:58;;;;;;;14.25;10.48;;;;;;;;;;5018673;28;20109;-54
2024/03/26 10:19:24;;;;;;;14.23;10.45;;;;;;;;;;5018456;28;20025;-52
2024/03/26 10:21:50;;;;;;;14.20;10.32;;;;;;;;;;5018628;28;20021;-56
2024/03/26 10:24:16;;;;;;;14.10;10.13;;;;;;;;;;5021077;28;20026;-55
2024/03/26 10:26:42;;;;;;;14.20;10.38;;;;;;;;;;5032896;28;20526;-53
2024/03/26 10:29:08;;;;;;;14.27;10.60;;;;;;;;;;5033088;28;20041;-55
2024/03/26 10:31:35;;;;;;;14.20;10.35;;;;;;;;;;5033212;28;20126;-51
2024/03/26 10:34:03;;;;;;;14.10;10.07;;;;;;;;;;5032872;28;20033;-50
2024/03/26 10:36:30;;;;;;;14.20;10.32;;;;;;;;;;5035133;28;20503;-48
2024/03/26 10:38:57;;;;;;;14.20;10.30;;;;;;;;;;5052859;28;20033;-50
2024/03/26 10:41:35;;;;;;;14.20;10.40;;;;;;;;;;5053076;28;20104;-51
2024/03/26 10:44:02;;;;;;;14.30;10.45;;;;;;;;;;5052911;28;20059;-55
2024/03/26 10:46:30;;;;;;;14.18;10.18;;;;;;;;;;5052797;28;20082;-50
2024/03/26 10:48:57;;;;;;;14.20;10.35;;;;;;;;;;5032803;28;20057;-54
2024/03/26 10:51:24;;;;;;;14.20;10.27;;;;;;;;;;5033046;28;20113;-49
2024/03/26 10:53:50;;;;;;;14.05;10.02;;;;;;;;;;5032632;28;20037;-52
2024/03/26 10:56:16;;;;;;;14.07;10.02;;;;;;;;;;5033111;28;20064;-53
2024/03/26 10:58:43;;;;;;;14.60;11.35;;;;;;;;;;5033013;28;20471;-50
2024/03/26 11:01:09;;;;;;;14.35;10.80;;;;;;;;;;5032725;28;20036;-55
2024/03/26 11:03:35;;;;;;;14.20;10.38;;;;;;;;;;5032429;28;20029;-54
2024/03/26 11:06:04;;;;;;;14.27;10.55;;;;;;;;;;5032573;28;20429;-56
2024/03/26 11:08:39;;;;;;;14.23;10.45;;;;;;;;;;5032579;28;20052;-52
2024/03/26 11:11:08;;;;;;;14.32;10.60;;;;;;;;;;5048051;28;20025;-56
2024/03/26 11:13:35;;;;;;;13.93;9.82;;;;;;;;;;5047260;28;20094;-55
2024/03/26 11:16:02;;;;;;;14.25;10.48;;;;;;;;;;5032451;28;20044;-57
2024/03/26 11:18:28;;;;;;;14.30;10.40;;;;;;;;;;5032497;28;20109;-52
2024/03/26 11:21:04;;;;;;;14.05;10.02;;;;;;;;;;5047889;28;20057;-52
2024/03/26 11:23:37;;;;;;;14.27;10.50;;;;;;;;;;5047479;28;20028;-53
2024/03/26 11:26:04;;;;;;;14.40;10.65;;;;;;;;;;5032298;28;20025;-56
2024/03/26 11:28:31;;;;;;;14.32;10.80;;;;;;;;;;5032306;28;20415;-54
2024/03/26 11:30:58;;;;;;;14.30;10.52;;;;;;;;;;5032179;28;20105;-54
2024/03/26 11:33:25;;;;;;;14.30;10.73;;;;;;;;;;5031572;28;20029;-58
2024/03/26 11:35:51;;;;;;;14.27;10.65;;;;;;;;;;5030830;28;20037;-53
2024/03/26 11:38:17;;;;;;;14.25;10.32;;;;;;;;;;5048622;28;20025;-54
2024/03/26 11:40:44;;;;;;;14.18;10.20;;;;;;;;;;5051885;28;20483;-53
2024/03/26 11:43:10;;;;;;;14.35;10.75;;;;;;;;;;5051173;28;20113;-53
2024/03/26 11:45:36;;;;;;;14.20;10.30;;;;;;;;;;5051569;28;20449;-54
2024/03/26 11:48:02;;;;;;;14.50;10.70;;;;;;;;;;5052360;28;20048;-54
2024/03/26 11:50:28;;;;;;;14.23;10.48;;;;;;;;;;5051857;28;20060;-57
2024/03/26 11:52:54;;;;;;;14.38;10.75;;;;;;;;;;5051281;28;20421;-55
2024/03/26 11:55:20;;;;;;;14.30;10.65;;;;;;;;;;5051557;28;20032;-52
2024/03/26 11:57:46;;;;;;;14.30;10.60;;;;;;;;;;5049515;28;20442;-56
2024/03/26 12:00:12;;;;;;;14.10;10.05;;;;;;;;;;5050629;28;20032;-54
2024/03/26 12:02:39;;;;;;;14.30;10.50;;;;;;;;;;5050753;28;20025;-56
2024/03/26 12:05:05;;;;;;;14.63;10.50;;;;;;;;;;5050398;28;20037;-51
2024/03/26 12:07:32;;;;;;;14.20;10.40;;;;;;;;;;5049311;28;20371;-53
2024/03/26 12:09:58;;;;;;;14.30;10.52;;;;;;;;;;5049635;28;20120;-55
2024/03/26 12:12:26;;;;;;;14.13;10.18;;;;;;;;;;5049536;28;20051;-51
2024/03/26 12:14:52;;;;;;;14.13;10.10;;;;;;;;;;5049057;28;20033;-55
2024/03/26 12:17:18;;;;;;;14.10;10.15;;;;;;;;;;5049327;28;20324;-53
2024/03/26 12:19:45;;;;;;;14.07;10.10;;;;;;;;;;5050218;28;20075;-53
2024/03/26 12:22:12;;;;;;;14.20;10.30;;;;;;;;;;5050653;28;20416;-51
2024/03/26 12:24:38;;;;;;;14.23;10.43;;;;;;;;;;5050931;28;20060;-52
2024/03/26 12:27:05;;;;;;;14.10;10.10;;;;;;;;;;5051045;28;20017;-55
2024/03/26 12:29:31;;;;;;;14.30;10.50;;;;;;;;;;5050815;28;20021;-53
2024/03/26 12:31:57;;;;;;;14.13;10.20;;;;;;;;;;5049262;28;20036;-53
2024/03/26 12:34:25;;;;;;;14.32;10.70;;;;;;;;;;5050371;28;20070;-55
2024/03/26 12:36:51;;;;;;;14.45;10.65;;;;;;;;;;5050412;28;20086;-54
2024/03/26 12:39:17;;;;;;;14.07;10.18;;;;;;;;;;5050031;28;20049;-51
2024/03/26 12:41:43;;;;;;;14.02;10.00;;;;;;;;;;5050275;28;20040;-52
2024/03/26 12:44:13;;;;;;;14.20;10.40;;;;;;;;;;5050020;28;20037;-54
2024/03/26 12:46:40;;;;;;;13.98;9.88;;;;;;;;;;5050130;28;20025;-55
2024/03/26 12:49:06;;;;;;;14.10;10.00;;;;;;;;;;5050248;28;20112;-55
2024/03/26 12:51:32;;;;;;;13.95;9.80;;;;;;;;;;5050259;28;20043;-53
2024/03/26 12:54:06;;;;;;;14.20;10.40;;;;;;;;;;5049947;28;20121;-56
2024/03/26 12:56:32;;;;;;;14.25;10.57;;;;;;;;;;5050036;28;20482;-51
2024/03/26 12:59:01;;;;;;;14.05;9.98;;;;;;;;;;5049873;28;20078;-55
2024/03/26 13:01:28;;;;;;;14.23;10.40;;;;;;;;;;5050183;28;20039;-53
2024/03/26 13:03:54;;;;;;;14.20;10.30;;;;;;;;;;5049726;28;20025;-51
2024/03/26 13:06:23;;;;;;;15.70;12.98;;;;;;;;;;5049875;28;20025;-51
2024/03/26 13:08:49;;;;;;;14.25;10.45;;;;;;;;;;5049914;28;20100;-56
2024/03/26 13:11:15;;;;;;;20.92;11.35;;;;;;;;;;5049766;28;20120;-57
2024/03/26 13:13:42;;;;;;;14.13;10.18;;;;;;;;;;5048249;28;20025;-54
2024/03/26 13:16:08;;;;;;;14.18;10.38;;;;;;;;;;5050475;28;20490;-52
2024/03/26 13:18:35;;;;;;;14.27;10.68;;;;;;;;;;5050183;28;20055;-50
2024/03/26 13:21:02;;;;;;;14.30;10.55;;;;;;;;;;5050065;28;20079;-52
2024/03/26 13:23:28;;;;;;;14.27;10.50;;;;;;;;;;5043426;28;20017;-51
2024/03/26 13:25:54;;;;;;;14.20;10.30;;;;;;;;;;5029607;28;20049;-55
2024/03/26 13:28:20;;;;;;;14.30;10.70;;;;;;;;;;5029941;28;20104;-52
2024/03/26 13:30:46;;;;;;;14.05;10.07;;;;;;;;;;5030035;28;20029;-56
2024/03/26 13:33:12;;;;;;;14.23;10.43;;;;;;;;;;5029601;28;20040;-54
2024/03/26 13:35:38;;;;;;;14.18;10.40;;;;;;;;;;5028177;28;20123;-53
2024/03/26 13:38:04;;;;;;;14.15;10.20;;;;;;;;;;5044325;28;20195;-55
2024/03/26 13:40:30;;;;;;;14.20;10.27;;;;;;;;;;5049429;28;20057;-53
2024/03/26 13:42:56;;;;;;;14.23;10.50;;;;;;;;;;5047740;28;20053;-55
2024/03/26 13:45:22;;;;;;;14.13;10.23;;;;;;;;;;5049339;28;20440;-53
2024/03/26 13:47:48;;;;;;;14.00;9.98;;;;;;;;;;5047994;28;20029;-52
2024/03/26 13:50:14;;;;;;;14.50;10.80;;;;;;;;;;5049451;28;20599;-55
2024/03/26 13:52:41;;;;;;;14.10;10.25;;;;;;;;;;5049367;28;20503;-54
2024/03/26 13:55:07;;;;;;;14.30;10.70;;;;;;;;;;5049459;28;20025;-54
2024/03/26 13:57:33;;;;;;;14.27;10.70;;;;;;;;;;5049200;28;20044;-52
2024/03/26 13:59:59;;;;;;;14.25;10.48;;;;;;;;;;5048783;28;20398;-54
2024/03/26 14:02:25;;;;;;;14.30;10.75;;;;;;;;;;5053336;28;20036;-54
2024/03/26 14:04:51;;;;;;;14.30;10.60;;;;;;;;;;5052694;28;20025;-51
2024/03/26 14:07:17;;;;;;;14.13;10.10;;;;;;;;;;5053404;28;20048;-53
2024/03/26 14:09:43;;;;;;;14.32;10.80;;;;;;;;;;5053473;28;20091;-54
2024/03/26 14:12:10;;;;;;;14.30;10.63;;;;;;;;;;5053263;28;20402;-52
2024/03/26 14:14:37;;;;;;;13.98;9.68;;;;;;;;;;5052806;28;20037;-51
2024/03/26 14:17:03;;;;;;;14.10;10.40;;;;;;;;;;5053002;28;20487;-52
2024/03/26 14:19:30;;;;;;;14.27;10.50;;;;;;;;;;5053308;28;20017;-50